KDNN 242055Z AUTO 00000KT 10SM SCT050 SCT090 34/18 A3015 RMK AO2